createdAt,value
2022-10-23T00:01:24.616Z,59.29
2022-10-23T00:03:54.358Z,59.33
2022-10-23T00:06:24.792Z,59.21
2022-10-23T00:08:53.419Z,59.36
2022-10-23T00:11:24.509Z,59.30
2022-10-23T00:13:55.448Z,59.01
2022-10-23T00:16:24.132Z,59.17
2022-10-23T00:18:52.669Z,59.46
2022-10-23T00:21:21.842Z,59.44
2022-10-23T00:23:52.238Z,59.34
2022-10-23T00:26:21.109Z,59.15
2022-10-23T00:28:52.305Z,59.18
2022-10-23T00:31:22.279Z,59.17
2022-10-23T00:33:51.236Z,59.28
2022-10-23T00:36:21.611Z,59.44
2022-10-23T00:38:52.218Z,58.92
2022-10-23T00:41:22.783Z,59.42
2022-10-23T00:44:01.605Z,59.40
2022-10-23T00:46:30.490Z,59.19
2022-10-23T00:48:59.685Z,58.81
2022-10-23T00:51:31.236Z,59.20
2022-10-23T00:54:22.806Z,59.14
2022-10-23T00:56:50.742Z,59.21
2022-10-23T00:59:19.234Z,59.02
2022-10-23T01:01:48.440Z,59.16
2022-10-23T01:04:17.096Z,59.07
2022-10-23T01:06:51.953Z,59.03
2022-10-23T01:09:27.957Z,58.97
2022-10-23T01:11:59.386Z,59.18
2022-10-23T01:14:33.148Z,58.95
2022-10-23T01:17:05.220Z,58.84
2022-10-23T01:19:48.330Z,58.97
2022-10-23T01:22:29.646Z,59.15
2022-10-23T01:25:03.119Z,59.01
2022-10-23T01:27:34.520Z,59.23
2022-10-23T01:30:06.993Z,59.08
2022-10-23T01:32:48.034Z,59.11
2022-10-23T01:35:21.015Z,58.99
2022-10-23T01:37:59.315Z,58.90
2022-10-23T01:40:34.108Z,59.01
2022-10-23T01:43:08.026Z,58.64
2022-10-23T01:45:41.301Z,58.95
2022-10-23T01:48:15.145Z,59.20
2022-10-23T01:50:45.493Z,58.97
2022-10-23T01:53:14.141Z,59.13
2022-10-23T01:55:43.400Z,58.99
2022-10-23T01:58:21.135Z,58.92
2022-10-23T02:00:52.048Z,58.74
2022-10-23T02:03:21.500Z,58.92
2022-10-23T02:05:50.081Z,59.07
2022-10-23T02:08:18.652Z,58.81
2022-10-23T02:10:52.891Z,58.78
2022-10-23T02:13:27.422Z,59.15
2022-10-23T02:16:01.429Z,58.82
2022-10-23T02:18:35.624Z,58.69
2022-10-23T02:21:08.346Z,58.87
2022-10-23T02:23:41.563Z,58.78
2022-10-23T02:26:13.763Z,58.80
2022-10-23T02:28:47.131Z,58.99
2022-10-23T02:31:18.330Z,58.66
2022-10-23T02:33:47.562Z,59.04
2022-10-23T02:36:16.708Z,58.95
2022-10-23T02:38:46.348Z,58.93
2022-10-23T02:41:22.301Z,59.13
2022-10-23T02:44:03.780Z,58.93
2022-10-23T02:46:38.124Z,58.85
2022-10-23T02:49:12.663Z,58.74
2022-10-23T02:51:50.232Z,58.96
2022-10-23T02:54:33.108Z,58.94
2022-10-23T02:57:05.114Z,58.98
2022-10-23T02:59:38.139Z,59.10
2022-10-23T03:02:10.540Z,58.90
2022-10-23T03:04:39.820Z,58.61
2022-10-23T03:07:11.938Z,59.08
2022-10-23T03:09:40.619Z,58.70
2022-10-23T03:12:09.221Z,58.75
2022-10-23T03:14:39.924Z,58.73
2022-10-23T03:17:10.469Z,58.83
2022-10-23T03:19:39.115Z,58.76
2022-10-23T03:22:07.640Z,58.72
2022-10-23T03:24:36.193Z,58.67
2022-10-23T03:27:05.029Z,58.74
2022-10-23T03:29:34.096Z,58.76
2022-10-23T03:32:04.101Z,58.59
2022-10-23T03:34:32.848Z,58.40
2022-10-23T03:37:01.776Z,58.81
2022-10-23T03:39:30.477Z,58.83
2022-10-23T03:41:58.962Z,58.77
2022-10-23T03:44:27.555Z,58.73
2022-10-23T03:46:56.344Z,58.68
2022-10-23T03:49:26.236Z,58.56
2022-10-23T03:51:54.923Z,58.95
2022-10-23T03:54:24.634Z,58.75
2022-10-23T03:56:56.550Z,58.58
2022-10-23T03:59:26.221Z,58.62
2022-10-23T04:01:55.471Z,58.84
2022-10-23T04:04:27.379Z,58.65
2022-10-23T04:06:55.879Z,58.67
2022-10-23T04:09:24.615Z,58.67
2022-10-23T04:11:53.234Z,58.47
2022-10-23T04:14:21.735Z,58.48
2022-10-23T04:16:50.219Z,58.59
2022-10-23T04:19:18.746Z,58.58
2022-10-23T04:21:49.350Z,58.42
2022-10-23T04:24:17.891Z,58.65
2022-10-23T04:26:46.431Z,58.79
2022-10-23T04:29:14.912Z,58.65
2022-10-23T04:31:43.422Z,58.60
2022-10-23T04:34:11.942Z,58.82
2022-10-23T04:36:40.733Z,58.51
2022-10-23T04:39:12.934Z,58.51
2022-10-23T04:41:41.765Z,58.32
2022-10-23T04:44:10.497Z,58.53
2022-10-23T04:46:40.371Z,58.55
2022-10-23T04:49:09.161Z,58.57
2022-10-23T04:51:56.398Z,58.66
2022-10-23T04:54:44.826Z,58.39
2022-10-23T04:57:31.276Z,58.45
2022-10-23T05:00:02.569Z,58.50
2022-10-23T05:02:37.559Z,58.33
2022-10-23T05:05:07.587Z,58.48
2022-10-23T05:07:36.868Z,58.73
2022-10-23T05:10:30.666Z,58.36
2022-10-23T05:13:14.013Z,58.44
2022-10-23T05:18:15.159Z,58.47
2022-10-23T05:20:45.841Z,58.65
2022-10-23T05:23:16.263Z,58.56
2022-10-23T05:25:55.225Z,58.67
2022-10-23T05:28:24.027Z,58.33
2022-10-23T05:30:53.003Z,58.57
2022-10-23T05:33:26.142Z,58.65
2022-10-23T05:35:54.781Z,58.56
2022-10-23T05:38:24.432Z,58.55
2022-10-23T05:40:53.227Z,58.54
2022-10-23T05:43:26.939Z,58.47
2022-10-23T05:46:09.927Z,58.46
2022-10-23T05:49:12.516Z,58.34
2022-10-23T05:51:55.271Z,58.50
2022-10-23T05:54:52.003Z,58.53
2022-10-23T05:57:39.500Z,58.37
2022-10-23T06:00:14.170Z,58.20
2022-10-23T06:02:42.808Z,58.41
2022-10-23T06:05:50.541Z,58.49
2022-10-23T06:08:24.300Z,58.56
2022-10-23T06:10:53.056Z,58.40
2022-10-23T06:13:21.610Z,58.66
2022-10-23T06:15:51.586Z,58.55
2022-10-23T06:18:22.428Z,58.42
2022-10-23T06:20:57.837Z,58.41
2022-10-23T06:23:28.348Z,58.67
2022-10-23T06:26:25.938Z,58.55
2022-10-23T06:29:08.810Z,58.09
2022-10-23T06:31:39.293Z,58.55
2022-10-23T06:34:07.952Z,58.26
2022-10-23T06:36:37.953Z,58.26
2022-10-23T06:39:29.787Z,58.27
2022-10-23T06:42:15.141Z,58.52
2022-10-23T06:44:55.730Z,58.37
2022-10-23T06:47:45.458Z,58.32
2022-10-23T06:50:32.706Z,58.52
2022-10-23T06:53:07.254Z,58.28
2022-10-23T06:55:40.435Z,58.42
2022-10-23T06:58:11.396Z,58.35
2022-10-23T07:00:55.413Z,58.62
2022-10-23T07:03:25.415Z,58.43
2022-10-23T07:05:54.469Z,58.15
2022-10-23T07:08:23.902Z,58.43
2022-10-23T07:10:54.824Z,58.31
2022-10-23T07:13:25.026Z,58.77
2022-10-23T07:16:00.795Z,58.22
2022-10-23T07:18:31.188Z,58.32
2022-10-23T07:21:18.865Z,58.22
2022-10-23T07:23:47.711Z,58.33
2022-10-23T07:26:17.737Z,58.26
2022-10-23T07:28:47.347Z,58.27
2022-10-23T07:31:25.669Z,58.25
2022-10-23T07:34:16.587Z,58.46
2022-10-23T07:36:47.666Z,58.18
2022-10-23T07:39:16.202Z,58.32
2022-10-23T07:41:52.179Z,58.10
2022-10-23T07:44:23.075Z,58.10
2022-10-23T07:46:54.155Z,58.06
2022-10-23T07:49:24.463Z,58.04
2022-10-23T07:51:54.133Z,58.09
2022-10-23T07:54:23.048Z,57.78
2022-10-23T07:57:18.463Z,57.73
2022-10-23T07:59:50.575Z,57.88
2022-10-23T08:02:23.044Z,58.50
2022-10-23T08:04:53.088Z,57.71
2022-10-23T08:07:29.318Z,57.77
2022-10-23T08:10:01.731Z,58.03
2022-10-23T08:12:31.568Z,57.73
2022-10-23T08:15:00.145Z,57.69
2022-10-23T08:17:36.826Z,57.54
2022-10-23T08:20:15.378Z,57.73
2022-10-23T08:22:46.061Z,57.86
2022-10-23T08:25:24.917Z,58.19
2022-10-23T08:27:54.940Z,57.76
2022-10-23T08:30:23.796Z,57.94
2022-10-23T08:32:53.917Z,57.96
2022-10-23T08:35:23.820Z,57.99
2022-10-23T08:37:52.541Z,58.07
2022-10-23T08:40:23.998Z,57.94
2022-10-23T08:43:16.594Z,57.81
2022-10-23T08:46:04.184Z,57.86
2022-10-23T08:48:58.033Z,57.84
2022-10-23T08:51:52.173Z,57.74
2022-10-23T08:54:23.258Z,57.76
2022-10-23T08:56:54.700Z,57.65
2022-10-23T08:59:28.181Z,57.65
2022-10-23T09:02:00.141Z,57.70
2022-10-23T09:04:29.450Z,57.60
2022-10-23T09:07:06.490Z,57.38
2022-10-23T09:09:48.249Z,57.37
2022-10-23T09:12:18.061Z,57.68
2022-10-23T09:14:58.654Z,57.24
2022-10-23T09:17:29.025Z,57.08
2022-10-23T09:20:03.121Z,57.43
2022-10-23T09:22:33.285Z,57.46
2022-10-23T09:25:01.773Z,57.18
2022-10-23T09:27:30.343Z,57.61
2022-10-23T09:29:59.409Z,57.42
2022-10-23T09:32:35.506Z,57.34
2022-10-23T09:35:04.848Z,57.38
2022-10-23T09:37:35.910Z,57.49
2022-10-23T09:40:20.609Z,57.31
2022-10-23T09:42:54.428Z,57.24
2022-10-23T09:45:25.068Z,57.04
2022-10-23T09:48:12.372Z,57.02
2022-10-23T09:50:48.487Z,57.09
2022-10-23T09:53:23.107Z,57.15
2022-10-23T09:55:53.608Z,56.96
2022-10-23T09:58:28.737Z,56.55
2022-10-23T10:00:58.006Z,56.68
2022-10-23T10:03:51.534Z,56.59
2022-10-23T10:06:25.839Z,56.70
2022-10-23T10:08:57.317Z,57.01
2022-10-23T10:11:31.372Z,56.78
2022-10-23T10:14:06.818Z,56.50
2022-10-23T10:16:44.335Z,56.63
2022-10-23T10:19:22.850Z,56.67
2022-10-23T10:21:56.246Z,56.87
2022-10-23T10:24:31.727Z,56.87
2022-10-23T10:27:07.339Z,57.00
2022-10-23T10:29:49.496Z,56.94
2022-10-23T10:32:27.350Z,56.90
2022-10-23T10:35:00.096Z,56.85
2022-10-23T10:37:38.364Z,57.03
2022-10-23T10:40:15.390Z,56.85
2022-10-23T10:42:58.732Z,56.59
2022-10-23T10:45:34.234Z,56.66
2022-10-23T10:48:26.029Z,56.67
2022-10-23T10:51:18.096Z,56.61
2022-10-23T10:53:59.250Z,56.77
2022-10-23T10:56:31.575Z,56.56
2022-10-23T10:59:03.018Z,57.01
2022-10-23T11:01:38.764Z,56.84
2022-10-23T11:04:15.766Z,56.18
2022-10-23T11:06:46.706Z,56.49
2022-10-23T11:09:21.035Z,56.87
2022-10-23T11:11:51.829Z,56.36
2022-10-23T11:14:23.492Z,56.60
2022-10-23T11:16:53.245Z,56.56
2022-10-23T11:19:24.600Z,56.52
2022-10-23T11:21:59.434Z,56.26
2022-10-23T11:24:50.794Z,56.44
2022-10-23T11:27:32.865Z,56.29
2022-10-23T11:30:18.747Z,56.53
2022-10-23T11:33:18.184Z,56.57
2022-10-23T11:35:57.213Z,56.64
2022-10-23T11:38:28.229Z,56.46
2022-10-23T11:40:58.537Z,56.47
2022-10-23T11:43:29.845Z,56.48
2022-10-23T11:45:59.024Z,56.79
2022-10-23T11:48:38.420Z,56.33
2022-10-23T11:51:07.631Z,56.46
2022-10-23T11:53:41.346Z,56.46
2022-10-23T11:56:28.128Z,56.44
2022-10-23T11:59:00.159Z,56.54
2022-10-23T12:01:37.135Z,56.79
2022-10-23T12:04:18.856Z,56.67
2022-10-23T12:06:49.482Z,56.81
2022-10-23T12:09:27.934Z,56.85
2022-10-23T12:12:18.454Z,56.64
2022-10-23T12:14:50.261Z,56.96
2022-10-23T12:17:30.532Z,56.93
2022-10-23T12:20:19.436Z,57.00
2022-10-23T12:22:55.956Z,56.91
2022-10-23T12:25:27.455Z,56.94
2022-10-23T12:28:03.557Z,56.95
2022-10-23T12:30:41.192Z,56.86
2022-10-23T12:33:20.200Z,56.93
2022-10-23T12:36:24.106Z,57.22
2022-10-23T12:38:54.730Z,57.41
2022-10-23T12:41:26.257Z,57.13
2022-10-23T12:43:56.426Z,57.36
2022-10-23T12:46:39.179Z,57.57
2022-10-23T12:49:16.223Z,57.11
2022-10-23T12:51:44.888Z,57.49
2022-10-23T12:54:18.392Z,57.38
2022-10-23T12:56:47.711Z,57.35
2022-10-23T12:59:18.289Z,57.66
2022-10-23T13:01:52.611Z,57.58
2022-10-23T13:04:29.756Z,57.67
2022-10-23T13:07:00.350Z,57.67
2022-10-23T13:09:32.221Z,57.48
2022-10-23T13:12:35.159Z,58.21
2022-10-23T13:15:17.167Z,58.31
2022-10-23T13:18:01.509Z,57.93
2022-10-23T13:20:31.704Z,57.76
2022-10-23T13:23:03.345Z,58.18
2022-10-23T13:25:33.873Z,57.77
2022-10-23T13:28:24.931Z,57.71
2022-10-23T13:31:09.206Z,57.92
2022-10-23T13:33:40.433Z,57.16
2022-10-23T13:36:22.845Z,57.39
2022-10-23T13:39:01.845Z,57.33
2022-10-23T13:41:35.148Z,57.32
2022-10-23T13:44:03.853Z,57.42
2022-10-23T13:46:32.464Z,57.14
2022-10-23T13:49:02.783Z,57.87
2022-10-23T13:51:35.055Z,57.50
2022-10-23T13:54:06.323Z,57.53
2022-10-23T13:56:35.364Z,57.68
2022-10-23T13:59:03.907Z,57.20
2022-10-23T14:01:35.923Z,57.86
2022-10-23T14:04:07.035Z,57.61
2022-10-23T14:06:37.501Z,57.77
2022-10-23T14:09:07.404Z,57.44
2022-10-23T14:11:36.171Z,57.43
2022-10-23T14:14:05.395Z,56.97
2022-10-23T14:16:34.022Z,57.03
2022-10-23T14:19:02.612Z,57.30
2022-10-23T14:21:32.651Z,56.95
2022-10-23T14:24:01.311Z,56.97
2022-10-23T14:26:30.474Z,56.77
2022-10-23T14:29:02.430Z,56.68
2022-10-23T14:31:35.772Z,57.03
2022-10-23T14:34:04.270Z,56.97
2022-10-23T14:36:43.290Z,57.34
2022-10-23T14:39:18.626Z,57.35
2022-10-23T14:41:47.113Z,57.53
2022-10-23T14:44:15.588Z,57.49
2022-10-23T14:46:44.097Z,57.56
2022-10-23T14:49:12.649Z,57.76
2022-10-23T14:51:42.521Z,57.64
2022-10-23T14:54:11.092Z,57.82
2022-10-23T14:56:40.793Z,57.90
2022-10-23T14:59:10.727Z,57.70
2022-10-23T15:01:43.795Z,57.85
2022-10-23T15:04:17.228Z,57.92
2022-10-23T15:06:47.761Z,58.01
2022-10-23T15:09:16.437Z,58.10
2022-10-23T15:11:44.874Z,58.26
2022-10-23T15:14:13.812Z,58.15
2022-10-23T15:16:42.716Z,58.32
2022-10-23T15:19:15.271Z,58.29
2022-10-23T15:21:49.339Z,58.36
2022-10-23T15:24:18.243Z,58.37
2022-10-23T15:26:46.803Z,58.52
2022-10-23T15:29:15.851Z,58.67
2022-10-23T15:31:47.280Z,58.66
2022-10-23T15:34:18.084Z,58.57
2022-10-23T15:36:48.488Z,58.68
2022-10-23T15:39:19.188Z,58.73
2022-10-23T15:41:48.394Z,58.72
2022-10-23T15:44:19.630Z,58.84
2022-10-23T15:46:48.352Z,58.68
2022-10-23T15:49:16.989Z,58.72
2022-10-23T15:51:46.091Z,58.72
2022-10-23T15:54:18.960Z,58.73
2022-10-23T15:56:48.959Z,58.84
2022-10-23T15:59:18.066Z,58.79
2022-10-23T16:01:46.741Z,59.00
2022-10-23T16:04:16.190Z,59.25
2022-10-23T16:06:44.946Z,58.86
2022-10-23T16:09:13.685Z,59.12
2022-10-23T16:11:44.437Z,59.13
2022-10-23T16:14:14.216Z,59.06
2022-10-23T16:16:42.715Z,59.17
2022-10-23T16:19:11.521Z,59.40
2022-10-23T16:21:40.285Z,59.10
2022-10-23T16:24:10.141Z,59.39
2022-10-23T16:26:39.500Z,59.22
2022-10-23T16:29:10.941Z,59.47
2022-10-23T16:31:39.612Z,59.54
2022-10-23T16:34:08.145Z,59.50
2022-10-23T16:36:39.212Z,59.38
2022-10-23T16:39:26.242Z,59.57
2022-10-23T16:42:13.398Z,59.77
2022-10-23T16:45:11.974Z,59.51
2022-10-23T16:47:40.524Z,59.74
2022-10-23T16:50:09.385Z,59.58
2022-10-23T16:52:37.995Z,59.69
2022-10-23T16:55:07.315Z,59.63
2022-10-23T16:57:36.087Z,59.71
2022-10-23T17:00:06.344Z,59.43
2022-10-23T17:02:36.353Z,59.59
2022-10-23T17:05:05.470Z,59.62
2022-10-23T17:07:34.147Z,59.54
2022-10-23T17:10:02.796Z,59.80
2022-10-23T17:12:31.446Z,59.66
2022-10-23T17:15:00.659Z,59.71
2022-10-23T17:17:29.393Z,59.68
2022-10-23T17:19:59.388Z,59.63
2022-10-23T17:22:28.131Z,59.93
2022-10-23T17:24:56.742Z,59.61
2022-10-23T17:27:25.238Z,59.84
2022-10-23T17:29:53.815Z,59.66
2022-10-23T17:34:56.270Z,59.77
2022-10-23T17:37:26.159Z,59.75
2022-10-23T17:39:54.746Z,59.56
2022-10-23T17:42:23.307Z,59.77
2022-10-23T17:44:51.804Z,59.71
2022-10-23T17:47:20.279Z,59.56
2022-10-23T17:49:48.765Z,59.93
2022-10-23T17:52:17.395Z,59.90
2022-10-23T17:54:47.389Z,60.14
2022-10-23T17:57:15.940Z,60.21
2022-10-23T17:59:44.557Z,60.14
2022-10-23T18:02:14.052Z,60.33
2022-10-23T18:04:42.666Z,59.88
2022-10-23T18:07:11.179Z,60.08
2022-10-23T18:09:40.212Z,60.09
2022-10-23T18:12:10.186Z,60.09
2022-10-23T18:14:38.701Z,60.09
2022-10-23T18:17:07.279Z,60.00
2022-10-23T18:19:36.534Z,60.15
2022-10-23T18:22:05.205Z,59.73
2022-10-23T18:24:33.778Z,60.00
2022-10-23T18:27:02.366Z,59.97
2022-10-23T18:29:32.407Z,59.69
2022-10-23T18:32:01.056Z,59.92
2022-10-23T18:34:29.630Z,60.03
2022-10-23T18:36:58.427Z,59.97
2022-10-23T18:39:27.237Z,59.94
2022-10-23T18:41:57.527Z,59.79
2022-10-23T18:44:29.112Z,59.83
2022-10-23T18:47:00.110Z,59.92
2022-10-23T18:49:29.126Z,59.88
2022-10-23T18:51:58.318Z,60.07
2022-10-23T18:54:26.816Z,59.83
2022-10-23T18:56:55.386Z,60.04
2022-10-23T18:59:24.225Z,59.94
2022-10-23T19:01:53.306Z,60.09
2022-10-23T19:04:23.311Z,59.92
2022-10-23T19:06:52.245Z,59.87
2022-10-23T19:09:21.199Z,59.78
2022-10-23T19:11:51.037Z,59.83
2022-10-23T19:14:19.705Z,59.96
2022-10-23T19:16:58.082Z,59.88
2022-10-23T19:19:29.923Z,59.96
2022-10-23T19:21:58.761Z,59.67
2022-10-23T19:24:29.930Z,59.67
2022-10-23T19:26:59.512Z,59.79
2022-10-23T19:29:28.479Z,60.04
2022-10-23T19:31:57.393Z,59.81
2022-10-23T19:34:27.821Z,59.98
2022-10-23T19:36:56.585Z,59.65
2022-10-23T19:39:26.001Z,60.10
2022-10-23T19:41:55.064Z,59.78
2022-10-23T19:44:23.769Z,59.93
2022-10-23T19:46:52.350Z,59.83
2022-10-23T19:49:21.070Z,59.87
2022-10-23T19:51:51.676Z,59.90
2022-10-23T19:54:20.872Z,59.99
2022-10-23T19:56:49.652Z,59.93
2022-10-23T19:59:18.782Z,59.96
2022-10-23T20:01:49.013Z,59.92
2022-10-23T20:04:18.556Z,59.84
2022-10-23T20:06:48.155Z,60.05
2022-10-23T20:09:18.220Z,59.94
2022-10-23T20:11:49.230Z,59.99
2022-10-23T20:14:18.843Z,59.93
2022-10-23T20:16:52.153Z,59.93
2022-10-23T20:19:23.451Z,60.15
2022-10-23T20:21:52.011Z,60.08
2022-10-23T20:24:22.799Z,59.92
2022-10-23T20:26:54.880Z,59.79
2022-10-23T20:29:24.700Z,59.66
2022-10-23T20:31:53.300Z,59.96
2022-10-23T20:34:21.866Z,60.02
2022-10-23T20:36:53.070Z,60.12
2022-10-23T20:39:25.565Z,59.99
2022-10-23T20:41:55.614Z,60.29
2022-10-23T20:44:24.822Z,60.15
2022-10-23T20:46:53.785Z,59.96
2022-10-23T20:49:23.221Z,60.10
2022-10-23T20:51:54.994Z,59.93
2022-10-23T20:54:28.747Z,60.26
2022-10-23T20:56:58.807Z,60.00
2022-10-23T20:59:27.296Z,60.04
2022-10-23T21:01:57.368Z,60.07
2022-10-23T21:04:27.547Z,59.96
2022-10-23T21:07:12.823Z,60.09
2022-10-23T21:09:42.771Z,60.08
2022-10-23T21:12:11.268Z,60.08
2022-10-23T21:14:39.910Z,60.21
2022-10-23T21:17:11.250Z,60.01
2022-10-23T21:19:40.605Z,59.93
2022-10-23T21:22:09.296Z,60.13
2022-10-23T21:24:41.967Z,59.82
2022-10-23T21:27:10.908Z,60.02
2022-10-23T21:29:40.052Z,60.12
2022-10-23T21:32:09.119Z,59.90
2022-10-23T21:34:38.168Z,60.05
2022-10-23T21:37:13.109Z,60.26
2022-10-23T21:39:44.491Z,59.97
2022-10-23T21:42:14.015Z,60.38
2022-10-23T21:44:42.691Z,60.14
2022-10-23T21:47:11.664Z,60.33
2022-10-23T21:49:40.243Z,60.11
2022-10-23T21:52:08.763Z,60.15
2022-10-23T21:54:37.467Z,60.26
2022-10-23T21:57:13.821Z,59.98
2022-10-23T21:59:42.357Z,60.21
2022-10-23T22:02:11.349Z,59.85
2022-10-23T22:04:40.528Z,60.03
2022-10-23T22:07:10.943Z,59.80
2022-10-23T22:09:39.812Z,60.25
2022-10-23T22:12:10.876Z,60.29
2022-10-23T22:14:40.156Z,59.89
2022-10-23T22:17:08.755Z,60.06
2022-10-23T22:19:37.343Z,59.94
2022-10-23T22:22:05.956Z,60.07
2022-10-23T22:24:34.644Z,59.90
2022-10-23T22:27:03.641Z,60.10
2022-10-23T22:29:33.651Z,60.15
2022-10-23T22:32:02.228Z,60.00
2022-10-23T22:34:51.755Z,59.84
2022-10-23T22:37:20.393Z,60.07
2022-10-23T22:39:54.001Z,59.86
2022-10-23T22:42:22.501Z,59.97
2022-10-23T22:44:52.455Z,59.53
2022-10-23T22:47:21.079Z,59.98
2022-10-23T22:49:49.726Z,60.17
2022-10-23T22:52:18.218Z,60.16
2022-10-23T22:54:46.725Z,59.84
2022-10-23T22:57:15.333Z,60.03
2022-10-23T22:59:44.748Z,59.93
2022-10-23T23:02:14.565Z,59.76
2022-10-23T23:04:43.341Z,59.92
2022-10-23T23:07:13.663Z,60.17
2022-10-23T23:09:43.993Z,60.06
2022-10-23T23:12:14.310Z,60.10
2022-10-23T23:14:43.488Z,60.11
2022-10-23T23:17:12.403Z,60.22
2022-10-23T23:19:42.207Z,59.99
2022-10-23T23:22:10.812Z,60.19
2022-10-23T23:24:40.147Z,60.52
2022-10-23T23:27:08.647Z,60.22
2022-10-23T23:29:37.358Z,60.42
2022-10-23T23:32:06.959Z,60.67
2022-10-23T23:34:35.657Z,60.66
2022-10-23T23:37:05.924Z,60.84
2022-10-23T23:39:34.443Z,60.77
2022-10-23T23:42:02.909Z,60.47
2022-10-23T23:44:31.390Z,60.35
2022-10-23T23:46:59.806Z,60.62
2022-10-23T23:49:28.254Z,60.39
2022-10-23T23:51:56.691Z,60.77
2022-10-23T23:54:26.468Z,60.49
2022-10-23T23:56:58.973Z,60.20
2022-10-23T23:59:27.429Z,60.09
